.
WxDataArchive / Data Records for 2013-04-25
2013-04-24 April 2013 2013-04-26

Data Records for Thursday, 25 April 2013

Time	Temp	Chill	HIndex	Humid	Dewpt	 Wind 	HiWind	WindDir	Rain 	Barom 
-----	----	-----	------	-----	-----	------	------	-------	-----	----- 
00:00	33.2	33.2	33.2	80	27.7	0	0	---	0.00	30.194 
00:05	33.4	33.4	33.4	80	27.9	0	0	---	0.00	30.194 
00:10	33.4	33.4	33.4	80	27.9	0	0	---	0.00	30.194 
00:15	33.5	33.5	33.5	81	28.3	0	1	248	0.00	30.191 
00:20	33.8	33.8	33.8	81	28.6	0	1	248	0.00	30.191 
00:25	34.1	34.1	34.1	81	28.9	0	1	248	0.00	30.191 
00:30	34.3	34.3	34.3	81	29.1	0	1	248	0.00	30.190 
00:35	34.4	34.4	34.4	81	29.2	0	0	---	0.00	30.190 
00:40	34.4	34.4	34.4	81	29.2	0	1	248	0.00	30.190 
00:45	34.6	34.6	34.6	81	29.4	0	1	248	0.00	30.189 
00:50	34.6	34.6	34.6	82	29.7	0	0	---	0.00	30.189 
00:55	34.6	34.6	34.6	82	29.7	0	1	248	0.00	30.189 
01:00	34.6	34.6	34.6	82	29.7	0	0	---	0.00	30.184 
01:05	34.6	34.6	34.6	82	29.7	0	0	---	0.00	30.184 
01:10	34.6	34.6	34.6	82	29.7	0	0	---	0.00	30.184 
01:15	34.4	34.4	34.4	82	29.5	0	0	---	0.00	30.187 
01:20	34.4	34.4	34.4	83	29.8	0	0	---	0.00	30.187 
01:25	34.4	34.4	34.4	83	29.8	0	0	---	0.00	30.187 
01:30	34.4	34.4	34.4	83	29.8	0	0	---	0.00	30.188 
01:35	34.4	34.4	34.4	83	29.8	0	0	---	0.00	30.188 
01:40	34.4	34.4	34.4	83	29.8	0	0	---	0.00	30.188 
01:45	34.4	34.4	34.4	83	29.8	0	0	---	0.00	30.189 
01:50	34.4	34.4	34.4	84	30.1	0	0	---	0.00	30.189 
01:55	34.4	34.4	34.4	84	30.1	0	0	---	0.00	30.189 
02:00	34.4	34.4	34.4	84	30.1	0	0	---	0.00	30.185 
02:05	34.4	34.4	34.4	84	30.1	0	0	---	0.00	30.185 
02:10	34.6	34.6	34.6	84	30.3	0	1	248	0.00	30.185 
02:15	34.6	34.6	34.6	84	30.3	0	1	248	0.00	30.176 
02:20	34.7	34.7	34.7	84	30.4	0	1	248	0.00	30.176 
02:25	34.7	34.7	34.7	84	30.4	0	1	248	0.00	30.176 
02:30	34.7	34.7	34.7	84	30.4	0	1	248	0.00	30.175 
02:35	35.0	35.0	35.0	84	30.7	0	1	248	0.00	30.175 
02:40	35.2	35.2	35.2	84	30.9	0	1	248	0.00	30.175 
02:45	35.3	35.3	35.3	84	31.0	0	1	248	0.00	30.175 
02:50	35.3	35.3	35.3	84	31.0	0	1	248	0.00	30.175 
02:55	35.3	35.3	35.3	84	31.0	0	1	248	0.00	30.175 
03:00	35.5	35.5	35.5	84	31.2	0	1	248	0.00	30.172 
03:05	35.5	35.5	35.5	84	31.2	0	2	248	0.00	30.172 
03:10	35.6	35.6	35.6	84	31.3	0	1	248	0.00	30.172 
03:15	35.6	35.6	35.6	84	31.3	0	2	248	0.00	30.167 
03:20	35.6	35.6	35.6	84	31.3	0	1	248	0.00	30.167 
03:25	35.6	35.6	35.6	84	31.3	0	1	248	0.00	30.167 
03:30	35.6	35.6	35.6	83	31.0	0	1	248	0.00	30.166 
03:35	35.6	35.6	35.6	84	31.3	0	1	248	0.00	30.166 
03:40	35.6	35.6	35.6	84	31.3	0	1	248	0.00	30.166 
03:45	35.6	35.6	35.6	84	31.3	0	2	248	0.00	30.168 
03:50	35.6	35.6	35.6	84	31.3	0	1	248	0.00	30.168 
03:55	35.6	35.6	35.6	84	31.3	0	1	248	0.00	30.168 
04:00	35.5	35.5	35.5	84	31.2	0	1	248	0.00	30.169 
04:05	35.5	35.5	35.5	84	31.2	0	2	248	0.00	30.169 
04:10	35.5	35.5	35.5	84	31.2	0	2	248	0.00	30.169 
04:15	35.5	35.5	35.5	84	31.2	0	1	248	0.00	30.167 
04:20	35.5	35.5	35.5	84	31.2	0	2	248	0.00	30.167 
04:25	35.5	35.5	35.5	84	31.2	0	2	248	0.00	30.167 
04:30	35.5	35.5	35.5	84	31.2	0	2	248	0.00	30.168 
04:35	35.5	35.5	35.5	84	31.2	0	1	248	0.00	30.168 
04:40	35.3	35.3	35.3	84	31.0	0	2	248	0.00	30.168 
04:45	35.3	35.3	35.3	84	31.0	0	1	248	0.00	30.167 
04:50	35.2	35.2	35.2	84	30.9	0	1	248	0.00	30.167 
04:55	35.2	35.2	35.2	84	30.9	0	3	248	0.00	30.167 
05:00	35.2	35.2	35.2	84	30.9	0	3	248	0.00	30.169 
05:05	35.3	35.3	35.3	84	31.0	0	2	248	0.00	30.169 
05:10	35.2	35.2	35.2	84	30.9	0	1	248	0.00	30.169 
05:15	35.2	35.2	35.2	84	30.9	0	1	248	0.00	30.160 
05:20	35.0	35.0	35.0	84	30.7	0	1	248	0.00	30.160 
05:25	34.9	34.9	34.9	85	30.9	0	0	---	0.00	30.160 
05:30	34.9	34.9	34.9	85	30.9	0	1	248	0.00	30.167 
05:35	34.7	34.7	34.7	85	30.7	0	1	248	0.00	30.167 
05:40	34.7	34.7	34.7	85	30.7	0	1	248	0.00	30.167 
05:45	34.7	34.7	34.7	85	30.7	0	1	248	0.00	30.175 
05:50	34.6	34.6	34.6	85	30.6	0	1	248	0.00	30.175 
05:55	34.7	34.7	34.7	86	30.9	0	1	248	0.00	30.175 
06:00	34.7	34.7	34.7	86	30.9	0	2	248	0.00	30.178 
06:05	34.7	34.7	34.7	86	30.9	0	1	248	0.00	30.178 
06:10	34.9	34.9	34.9	86	31.1	0	3	248	0.00	30.178 
06:15	34.9	34.9	34.9	86	31.1	0	2	248	0.00	30.180 
06:20	35.0	35.0	35.0	86	31.2	0	1	248	0.00	30.180 
06:25	35.0	35.0	35.0	86	31.2	0	1	248	0.00	30.180 
06:30	35.0	35.0	35.0	86	31.2	0	1	248	0.00	30.176 
06:35	35.0	35.0	35.0	86	31.2	0	1	248	0.00	30.176 
06:40	34.9	34.9	34.9	86	31.1	0	1	248	0.00	30.176 
06:45	34.9	34.9	34.9	86	31.1	0	1	248	0.00	30.171 
06:50	34.9	34.9	34.9	86	31.1	0	1	248	0.00	30.171 
06:55	35.0	35.0	35.0	86	31.2	0	1	68	0.00	30.171 
07:00	35.2	35.2	35.2	86	31.4	0	1	68	0.00	30.170 
07:05	35.2	35.2	35.2	86	31.4	0	2	68	0.00	30.170 
07:10	35.3	35.3	35.3	86	31.5	0	3	90	0.00	30.170 
07:15	35.5	35.5	35.5	86	31.7	0	3	90	0.00	30.168 
07:20	35.6	35.6	35.6	85	31.5	1	3	90	0.00	30.168 
07:25	35.9	35.9	35.9	85	31.8	0	2	90	0.00	30.168 
07:30	36.0	36.0	36.0	85	31.9	0	2	90	0.00	30.165 
07:35	36.2	36.2	36.2	84	31.8	0	2	90	0.00	30.165 
07:40	36.6	36.6	36.6	84	32.2	1	3	225	0.00	30.165 
07:45	37.0	37.0	37.0	84	32.6	1	3	248	0.00	30.167 
07:50	37.6	37.6	37.6	83	32.9	1	3	248	0.00	30.167 
07:55	38.0	38.0	38.0	81	32.7	1	4	270	0.00	30.167 
08:00	38.6	38.6	38.6	80	33.0	1	5	270	0.00	30.166 
08:05	39.1	39.1	39.1	79	33.1	1	4	248	0.00	30.166 
08:10	39.5	39.5	39.5	78	33.2	1	4	248	0.00	30.166 
08:15	39.9	39.9	39.9	77	33.3	1	9	248	0.00	30.167 
08:20	40.3	40.3	40.3	76	33.3	2	7	248	0.00	30.167 
08:25	40.9	40.9	40.9	74	33.3	1	4	248	0.00	30.167 
08:30	41.2	41.2	41.2	73	33.2	2	10	248	0.00	30.165 
08:35	41.2	41.2	41.2	72	32.9	2	10	248	0.00	30.165 
08:40	41.5	41.5	41.5	72	33.2	1	4	248	0.00	30.165 
08:45	42.1	42.1	42.1	72	33.7	1	5	270	0.00	30.166 
08:50	42.3	42.3	42.3	70	33.2	1	5	270	0.00	30.166 
08:55	42.5	42.5	42.5	69	33.1	2	9	248	0.00	30.166 
09:00	42.5	42.5	42.5	69	33.1	2	5	248	0.00	30.158 
09:05	42.9	42.9	42.9	69	33.4	2	7	248	0.00	30.158 
09:10	43.2	43.2	43.2	68	33.4	2	7	270	0.00	30.158 
09:15	43.5	43.5	43.5	67	33.3	2	4	248	0.00	30.159 
09:20	43.9	43.9	43.9	67	33.7	2	7	248	0.00	30.159 
09:25	44.1	44.1	44.1	65	33.1	3	8	248	0.00	30.159 
09:30	43.8	43.8	43.8	65	32.8	2	9	248	0.00	30.161 
09:35	43.8	43.8	43.8	66	33.2	2	6	248	0.00	30.161 
09:40	43.9	43.9	43.9	65	32.9	2	7	248	0.00	30.161 
09:45	43.8	43.8	43.8	65	32.8	2	5	270	0.00	30.158 
09:50	43.8	43.8	43.8	65	32.8	3	7	248	0.00	30.158 
09:55	43.8	43.8	43.8	65	32.8	2	5	248	0.00	30.158 
10:00	44.1	44.1	44.1	66	33.5	3	7	248	0.00	30.163 
10:05	44.2	44.2	44.2	65	33.2	2	7	248	0.00	30.163 
10:10	44.5	44.5	44.5	64	33.1	3	7	248	0.00	30.163 
10:15	44.8	44.8	44.8	65	33.8	2	6	248	0.00	30.165 
10:20	45.1	45.1	45.1	64	33.7	2	7	248	0.00	30.165 
10:25	45.1	45.1	45.1	64	33.7	2	7	248	0.00	30.165 
10:30	45.1	45.1	45.1	63	33.3	3	9	248	0.00	30.167 
10:35	45.2	45.2	45.2	65	34.1	2	7	248	0.00	30.167 
10:40	45.7	45.7	45.7	63	33.8	3	10	248	0.00	30.167 
10:45	46.2	46.2	46.2	62	33.9	3	9	248	0.00	30.168 
10:50	46.4	46.4	46.4	62	34.1	3	9	248	0.00	30.168 
10:55	46.2	46.2	46.2	61	33.5	3	9	248	0.00	30.168 
11:00	45.8	45.8	45.8	61	33.1	3	5	248	0.00	30.177 
11:05	45.5	45.5	45.5	62	33.2	3	5	270	0.00	30.177 
11:10	45.7	43.9	45.7	62	33.4	4	10	248	0.00	30.177 
11:15	45.8	45.8	45.8	62	33.5	3	5	248	0.00	30.182 
11:20	46.0	44.2	46.0	62	33.7	4	7	270	0.00	30.182 
11:25	46.2	46.2	46.2	62	33.9	3	7	248	0.00	30.182 
11:30	46.8	45.2	46.8	61	34.1	4	12	248	0.00	30.181 
11:35	46.7	46.7	46.7	62	34.4	3	10	248	0.00	30.181 
11:40	46.7	46.7	46.7	63	34.8	2	5	248	0.00	30.181 
11:45	46.5	44.8	46.5	62	34.2	4	7	248	0.00	30.188 
11:50	46.5	46.5	46.5	63	34.6	3	6	248	0.00	30.188 
11:55	46.4	46.4	46.4	63	34.5	3	7	270	0.00	30.188 
12:00	46.5	44.8	46.5	63	34.6	4	7	270	0.00	30.186 
12:05	47.1	47.1	47.1	64	35.6	3	9	248	0.00	30.186 
12:10	48.0	48.0	48.0	63	36.0	3	6	248	0.00	30.186 
12:15	49.1	49.1	49.1	61	36.2	3	9	248	0.00	30.180 
12:20	49.4	48.2	49.4	59	35.7	4	9	248	0.00	30.180 
12:25	48.9	47.6	48.9	59	35.2	4	11	248	0.00	30.180 
12:30	48.8	47.5	48.8	58	34.7	4	10	270	0.00	30.191 
12:35	48.5	48.5	48.5	60	35.3	3	10	270	0.00	30.191 
12:40	48.8	47.5	48.8	59	35.1	4	10	270	0.00	30.191 
12:45	48.6	48.6	48.6	60	35.3	3	9	248	0.00	30.188 
12:50	48.3	46.9	48.3	61	35.5	4	12	248	0.00	30.188 
12:55	48.9	47.6	48.9	60	35.6	4	10	270	0.00	30.188 
13:00	49.2	46.7	49.2	56	34.2	6	12	248	0.00	30.185 
13:05	49.5	47.6	49.5	54	33.6	5	13	248	0.00	30.185 
13:10	49.9	48.1	49.9	55	34.4	5	11	270	0.00	30.185 
13:15	50.1	50.1	50.1	56	35.0	4	6	270	0.00	30.188 
13:20	49.6	47.7	49.6	54	33.6	5	10	248	0.00	30.188 
13:25	49.2	49.2	49.2	55	33.7	3	7	270	0.00	30.188 
13:30	48.8	47.5	48.8	53	32.4	4	9	270	0.00	30.196 
13:35	48.2	46.8	48.2	54	32.3	4	10	270	0.00	30.196 
13:40	48.2	46.8	48.2	54	32.3	4	6	270	0.00	30.196 
13:45	48.8	48.8	48.8	52	32.0	3	7	270	0.00	30.196 
13:50	49.8	49.8	49.8	54	33.8	2	4	270	0.00	30.196 
13:55	50.4	50.4	50.4	46	30.4	4	10	292	0.00	30.196 
14:00	49.8	48.6	49.8	43	28.2	4	7	270	0.00	30.196 
14:05	49.2	47.9	49.2	45	28.8	4	6	270	0.00	30.196 
14:10	50.1	50.1	50.1	48	31.2	4	10	270	0.00	30.196 
14:15	50.4	50.4	50.4	47	30.9	5	9	270	0.00	30.205 
14:20	50.2	50.2	50.2	48	31.3	3	7	292	0.00	30.205 
14:25	49.8	49.8	49.8	48	30.9	3	6	270	0.00	30.205 
14:30	49.2	49.2	49.2	48	30.4	3	6	270	0.00	30.210 
14:35	49.1	47.8	49.1	48	30.3	4	7	270	0.00	30.210 
14:40	48.6	46.6	48.6	48	29.8	5	9	270	0.00	30.210 
14:45	48.2	48.2	48.2	49	29.9	3	7	270	0.00	30.217 
14:50	48.3	48.3	48.3	49	30.0	3	6	248	0.00	30.217 
14:55	48.8	48.8	48.8	50	31.0	3	10	248	0.00	30.217 
15:00	49.5	49.5	49.5	48	30.6	3	5	270	0.00	30.219 
15:05	49.6	49.6	49.6	48	30.7	3	6	248	0.00	30.219 
15:10	49.8	48.6	49.8	49	31.4	4	9	248	0.00	30.219 
15:15	50.5	50.5	50.5	49	32.1	3	11	248	0.00	30.221 
15:20	51.1	51.1	51.1	45	30.5	4	9	248	0.00	30.221 
15:25	50.2	50.2	50.2	47	30.8	3	8	248	0.00	30.221 
15:30	49.5	49.5	49.5	48	30.6	3	5	270	0.00	30.223 
15:35	49.2	49.2	49.2	48	30.4	3	6	248	0.00	30.223 
15:40	49.4	48.2	49.4	47	30.0	4	6	315	0.00	30.223 
15:45	50.1	50.1	50.1	45	29.6	4	6	270	0.00	30.226 
15:50	49.6	49.6	49.6	45	29.1	2	5	315	0.00	30.226 
15:55	50.2	50.2	50.2	46	30.2	3	5	270	0.00	30.226 
16:00	50.4	50.4	50.4	45	29.9	3	6	270	0.00	30.224 
16:05	51.6	51.6	51.6	44	30.4	3	9	248	0.00	30.224 
16:10	52.5	52.5	52.5	43	30.7	3	10	338	0.00	30.224 
16:15	52.3	52.3	52.3	41	29.3	4	10	270	0.00	30.230 
16:20	52.0	52.0	52.0	40	28.4	4	9	270	0.00	30.230 
16:25	51.4	51.4	51.4	40	27.9	3	5	248	0.00	30.230 
16:30	51.6	51.6	51.6	42	29.3	3	6	248	0.00	30.231 
16:35	51.7	51.7	51.7	41	28.8	3	6	292	0.00	30.231 
16:40	50.7	50.7	50.7	41	27.9	2	6	338	0.00	30.231 
16:45	50.7	50.7	50.7	42	28.5	2	6	248	0.00	30.240 
16:50	50.7	50.7	50.7	45	30.1	3	7	270	0.00	30.240 
16:55	50.4	50.4	50.4	46	30.4	2	5	270	0.00	30.240 
17:00	50.1	50.1	50.1	46	30.1	2	5	292	0.00	30.242 
17:05	51.0	51.0	51.0	45	30.4	3	6	270	0.00	30.242 
17:10	51.4	51.4	51.4	41	28.5	3	6	270	0.00	30.242 
17:15	51.9	51.9	51.9	42	29.5	3	6	248	0.00	30.246 
17:20	52.0	52.0	52.0	41	29.0	3	7	270	0.00	30.246 
17:25	51.9	51.9	51.9	43	30.1	2	5	315	0.00	30.246 
17:30	52.0	52.0	52.0	42	29.6	3	9	248	0.00	30.255 
17:35	51.7	51.7	51.7	39	27.6	4	10	270	0.00	30.255 
17:40	51.0	51.0	51.0	42	28.7	3	6	270	0.00	30.255 
17:45	50.2	50.2	50.2	45	29.7	1	4	248	0.00	30.266 
17:50	49.9	49.9	49.9	44	28.9	2	4	248	0.00	30.266 
17:55	49.8	49.8	49.8	44	28.8	1	4	270	0.00	30.266 
18:00	49.8	49.8	49.8	45	29.3	1	3	292	0.00	30.273 
18:05	50.4	50.4	50.4	43	28.8	2	4	292	0.00	30.273 
18:10	50.2	50.2	50.2	42	28.0	2	5	315	0.00	30.273 
18:15	49.6	49.6	49.6	43	28.0	2	5	270	0.00	30.280 
18:20	49.4	49.4	49.4	43	27.9	2	4	270	0.00	30.280 
18:25	49.2	49.2	49.2	43	27.7	2	5	270	0.00	30.280 
18:30	49.4	49.4	49.4	44	28.4	2	4	248	0.00	30.284 
18:35	49.4	49.4	49.4	44	28.4	1	4	248	0.00	30.284 
18:40	49.4	49.4	49.4	44	28.4	1	3	248	0.00	30.284 
18:45	49.5	49.5	49.5	43	27.9	1	3	248	0.00	30.279 
18:50	49.6	49.6	49.6	44	28.6	1	2	338	0.00	30.279 
18:55	49.4	49.4	49.4	43	27.9	3	6	270	0.00	30.279 
19:00	49.1	49.1	49.1	43	27.6	2	5	248	0.00	30.289 
19:05	48.8	48.8	48.8	44	27.9	1	3	292	0.00	30.289 
19:10	48.6	48.6	48.6	45	28.2	1	2	292	0.00	30.289 
19:15	48.5	48.5	48.5	44	27.6	2	4	292	0.00	30.290 
19:20	48.5	48.5	48.5	45	28.1	1	2	292	0.00	30.290 
19:25	48.6	48.6	48.6	44	27.7	2	4	292	0.00	30.290 
19:30	48.5	48.5	48.5	45	28.1	1	3	270	0.00	30.299 
19:35	48.3	48.3	48.3	46	28.5	1	3	270	0.00	30.299 
19:40	48.2	48.2	48.2	46	28.4	1	3	270	0.00	30.299 
19:45	48.2	48.2	48.2	46	28.4	1	4	315	0.00	30.301 
19:50	48.2	48.2	48.2	47	28.9	1	2	270	0.00	30.301 
19:55	48.2	48.2	48.2	46	28.4	1	3	270	0.00	30.301 
20:00	48.0	48.0	48.0	46	28.2	1	3	270	0.00	30.303 
20:05	47.9	47.9	47.9	46	28.1	1	3	292	0.00	30.303 
20:10	47.7	47.7	47.7	46	27.9	1	3	292	0.00	30.303 
20:15	47.4	47.4	47.4	47	28.2	0	2	292	0.00	30.301 
20:20	47.1	47.1	47.1	47	27.9	0	2	292	0.00	30.301 
20:25	46.8	46.8	46.8	48	28.2	0	2	292	0.00	30.301 
20:30	46.5	46.5	46.5	48	27.9	0	1	292	0.00	30.308 
20:35	46.2	46.2	46.2	50	28.6	0	0	---	0.00	30.308 
20:40	45.8	45.8	45.8	51	28.7	0	0	---	0.00	30.308 
20:45	45.4	45.4	45.4	52	28.8	0	0	---	0.00	30.314 
20:50	44.9	44.9	44.9	53	28.8	0	0	---	0.00	30.314 
20:55	44.3	44.3	44.3	54	28.7	0	0	---	0.00	30.314 
21:00	43.8	43.8	43.8	55	28.7	0	0	---	0.00	30.318 
21:05	43.2	43.2	43.2	56	28.6	0	0	---	0.00	30.318 
21:10	42.8	42.8	42.8	58	29.1	0	0	---	0.00	30.318 
21:15	42.3	42.3	42.3	59	29.0	0	0	---	0.00	30.320 
21:20	41.9	41.9	41.9	60	29.0	0	0	---	0.00	30.320 
21:25	41.6	41.6	41.6	61	29.2	0	0	---	0.00	30.320 
21:30	41.2	41.2	41.2	62	29.2	0	0	---	0.00	30.328 
21:35	41.1	41.1	41.1	63	29.5	0	0	---	0.00	30.328 
21:40	40.8	40.8	40.8	64	29.6	0	0	---	0.00	30.328 
21:45	40.6	40.6	40.6	64	29.4	0	0	---	0.00	30.336 
21:50	40.3	40.3	40.3	65	29.5	0	0	---	0.00	30.336 
21:55	40.1	40.1	40.1	65	29.3	0	0	---	0.00	30.336 
22:00	39.8	39.8	39.8	66	29.4	0	0	---	0.00	30.344 
22:05	39.5	39.5	39.5	66	29.1	0	0	---	0.00	30.344 
22:10	39.2	39.2	39.2	67	29.2	0	0	---	0.00	30.344 
22:15	38.8	38.8	38.8	68	29.2	0	0	---	0.00	30.351 
22:20	38.3	38.3	38.3	69	29.0	0	0	---	0.00	30.351 
22:25	38.0	38.0	38.0	70	29.1	0	0	---	0.00	30.351 
22:30	37.8	37.8	37.8	70	28.9	0	0	---	0.00	30.355 
22:35	37.5	37.5	37.5	72	29.3	0	0	---	0.00	30.355 
22:40	37.3	37.3	37.3	73	29.5	0	0	---	0.00	30.355 
22:45	37.2	37.2	37.2	75	30.0	0	0	---	0.00	30.366 
22:50	37.0	37.0	37.0	76	30.2	0	0	---	0.00	30.366 
22:55	36.9	36.9	36.9	77	30.4	0	0	---	0.00	30.366 
23:00	36.6	36.6	36.6	77	30.1	0	0	---	0.00	30.368 
23:05	36.5	36.5	36.5	77	30.0	0	0	---	0.00	30.368 
23:10	36.2	36.2	36.2	77	29.7	0	0	---	0.00	30.368 
23:15	36.0	36.0	36.0	78	29.8	0	0	---	0.00	30.368 
23:20	35.8	35.8	35.8	78	29.6	0	0	---	0.00	30.368 
23:25	35.5	35.5	35.5	78	29.3	0	0	---	0.00	30.368 
23:30	35.3	35.3	35.3	79	29.4	0	0	---	0.00	30.368 
23:35	35.3	35.3	35.3	80	29.8	0	0	---	0.00	30.368 
23:40	35.2	35.2	35.2	80	29.7	0	0	---	0.00	30.368 
23:45	35.0	35.0	35.0	81	29.8	0	0	---	0.00	30.371 
23:50	35.0	35.0	35.0	81	29.8	0	0	---	0.00	30.371 
23:55	35.0	35.0	35.0	81	29.8	0	0	---	0.00	30.371 

CoCoRaHS
IN-AL-39
A2 Web Hosting
Creative Commons License
GoDaddy
search engine by freefind advanced

loaded 2018-12-19 10:25:23 • last modified 2010-11-18 10:43:29
Privacy PolicyDisclaimer
• wx.awcolley.com is powered by PmWiki v.2002016 •
• all content (unless otherwise noted) © 2018 A W Colley